sensor_id;sensor_type;location;lat;lon;timestamp;P1;durP1;ratioP1;P2;durP2;ratioP2
11735;SDS011;5924;51.398;7.088;2023-05-14T00:01:24;7.73;;;7.07;;
11735;SDS011;5924;51.398;7.088;2023-05-14T00:03:50;8.33;;;7.70;;
11735;SDS011;5924;51.398;7.088;2023-05-14T00:06:15;7.57;;;6.97;;
11735;SDS011;5924;51.398;7.088;2023-05-14T00:08:41;7.03;;;6.50;;
11735;SDS011;5924;51.398;7.088;2023-05-14T00:11:07;8.10;;;7.40;;
11735;SDS011;5924;51.398;7.088;2023-05-14T00:13:35;7.73;;;7.17;;
11735;SDS011;5924;51.398;7.088;2023-05-14T00:16:01;8.57;;;7.87;;
11735;SDS011;5924;51.398;7.088;2023-05-14T00:18:26;8.67;;;8.03;;
11735;SDS011;5924;51.398;7.088;2023-05-14T00:20:52;8.30;;;7.50;;
11735;SDS011;5924;51.398;7.088;2023-05-14T00:23:21;7.57;;;6.97;;
11735;SDS011;5924;51.398;7.088;2023-05-14T00:25:48;8.63;;;7.33;;
11735;SDS011;5924;51.398;7.088;2023-05-14T00:28:14;8.63;;;7.83;;
11735;SDS011;5924;51.398;7.088;2023-05-14T00:30:40;8.60;;;8.00;;
11735;SDS011;5924;51.398;7.088;2023-05-14T00:33:05;7.40;;;6.90;;
11735;SDS011;5924;51.398;7.088;2023-05-14T00:35:31;7.13;;;6.63;;
11735;SDS011;5924;51.398;7.088;2023-05-14T00:37:59;7.13;;;6.57;;
11735;SDS011;5924;51.398;7.088;2023-05-14T00:40:26;6.93;;;6.43;;
11735;SDS011;5924;51.398;7.088;2023-05-14T00:42:52;7.33;;;6.80;;
11735;SDS011;5924;51.398;7.088;2023-05-14T00:45:18;7.10;;;6.50;;
11735;SDS011;5924;51.398;7.088;2023-05-14T00:47:44;6.90;;;6.53;;
11735;SDS011;5924;51.398;7.088;2023-05-14T00:50:10;7.40;;;6.80;;
11735;SDS011;5924;51.398;7.088;2023-05-14T00:52:37;6.80;;;6.27;;
11735;SDS011;5924;51.398;7.088;2023-05-14T00:55:03;8.03;;;5.93;;
11735;SDS011;5924;51.398;7.088;2023-05-14T00:57:30;5.67;;;5.37;;
11735;SDS011;5924;51.398;7.088;2023-05-14T00:59:57;6.40;;;6.00;;
11735;SDS011;5924;51.398;7.088;2023-05-14T01:02:23;5.80;;;5.40;;
11735;SDS011;5924;51.398;7.088;2023-05-14T01:04:48;6.70;;;6.20;;
11735;SDS011;5924;51.398;7.088;2023-05-14T01:12:48;7.63;;;6.65;;
11735;SDS011;5924;51.398;7.088;2023-05-14T01:18:02;7.30;;;6.80;;
11735;SDS011;5924;51.398;7.088;2023-05-14T01:20:31;7.00;;;6.50;;
11735;SDS011;5924;51.398;7.088;2023-05-14T01:22:56;6.37;;;5.97;;
11735;SDS011;5924;51.398;7.088;2023-05-14T01:25:22;7.70;;;7.20;;
11735;SDS011;5924;51.398;7.088;2023-05-14T01:30:36;6.93;;;6.43;;
11735;SDS011;5924;51.398;7.088;2023-05-14T01:33:12;7.60;;;6.90;;
11735;SDS011;5924;51.398;7.088;2023-05-14T01:35:39;7.20;;;6.57;;
11735;SDS011;5924;51.398;7.088;2023-05-14T01:38:09;6.97;;;6.43;;
11735;SDS011;5924;51.398;7.088;2023-05-14T01:40:36;6.70;;;6.30;;
11735;SDS011;5924;51.398;7.088;2023-05-14T01:43:03;6.80;;;6.20;;
11735;SDS011;5924;51.398;7.088;2023-05-14T01:45:29;7.25;;;6.40;;
11735;SDS011;5924;51.398;7.088;2023-05-14T01:47:55;6.27;;;5.97;;
11735;SDS011;5924;51.398;7.088;2023-05-14T01:50:21;6.47;;;6.07;;
11735;SDS011;5924;51.398;7.088;2023-05-14T01:52:46;6.57;;;6.17;;
11735;SDS011;5924;51.398;7.088;2023-05-14T01:55:12;5.77;;;5.50;;
11735;SDS011;5924;51.398;7.088;2023-05-14T01:57:38;7.10;;;6.60;;
11735;SDS011;5924;51.398;7.088;2023-05-14T02:00:04;6.53;;;6.17;;
11735;SDS011;5924;51.398;7.088;2023-05-14T02:02:30;7.90;;;7.20;;
11735;SDS011;5924;51.398;7.088;2023-05-14T02:04:56;7.70;;;7.00;;
11735;SDS011;5924;51.398;7.088;2023-05-14T02:07:21;7.50;;;6.90;;
11735;SDS011;5924;51.398;7.088;2023-05-14T02:09:47;7.67;;;7.07;;
11735;SDS011;5924;51.398;7.088;2023-05-14T02:12:12;9.17;;;8.40;;
11735;SDS011;5924;51.398;7.088;2023-05-14T02:14:38;9.93;;;8.97;;
11735;SDS011;5924;51.398;7.088;2023-05-14T02:17:04;16.50;;;9.63;;
11735;SDS011;5924;51.398;7.088;2023-05-14T02:19:30;9.70;;;8.70;;
11735;SDS011;5924;51.398;7.088;2023-05-14T02:21:55;10.97;;;9.87;;
11735;SDS011;5924;51.398;7.088;2023-05-14T02:24:22;10.53;;;9.53;;
11735;SDS011;5924;51.398;7.088;2023-05-14T02:26:48;11.17;;;8.93;;
11735;SDS011;5924;51.398;7.088;2023-05-14T02:29:13;12.73;;;9.50;;
11735;SDS011;5924;51.398;7.088;2023-05-14T02:31:39;10.40;;;9.17;;
11735;SDS011;5924;51.398;7.088;2023-05-14T02:34:05;9.73;;;8.77;;
11735;SDS011;5924;51.398;7.088;2023-05-14T02:36:31;12.30;;;10.90;;
11735;SDS011;5924;51.398;7.088;2023-05-14T02:38:57;10.37;;;9.37;;
11735;SDS011;5924;51.398;7.088;2023-05-14T02:41:23;10.00;;;8.70;;
11735;SDS011;5924;51.398;7.088;2023-05-14T02:43:49;10.80;;;9.57;;
11735;SDS011;5924;51.398;7.088;2023-05-14T02:46:15;10.80;;;9.70;;
11735;SDS011;5924;51.398;7.088;2023-05-14T02:48:41;13.07;;;9.43;;
11735;SDS011;5924;51.398;7.088;2023-05-14T02:51:07;9.63;;;8.70;;
11735;SDS011;5924;51.398;7.088;2023-05-14T02:53:33;8.83;;;8.13;;
11735;SDS011;5924;51.398;7.088;2023-05-14T02:55:59;9.30;;;8.50;;
11735;SDS011;5924;51.398;7.088;2023-05-14T02:58:24;9.93;;;9.03;;
11735;SDS011;5924;51.398;7.088;2023-05-14T03:00:50;15.20;;;10.07;;
11735;SDS011;5924;51.398;7.088;2023-05-14T03:03:17;9.50;;;8.60;;
11735;SDS011;5924;51.398;7.088;2023-05-14T03:05:43;9.70;;;8.90;;
11735;SDS011;5924;51.398;7.088;2023-05-14T03:08:09;10.83;;;9.53;;
11735;SDS011;5924;51.398;7.088;2023-05-14T03:10:34;9.60;;;8.60;;
11735;SDS011;5924;51.398;7.088;2023-05-14T03:13:01;11.53;;;9.00;;
11735;SDS011;5924;51.398;7.088;2023-05-14T03:15:27;9.30;;;8.50;;
11735;SDS011;5924;51.398;7.088;2023-05-14T03:17:52;12.77;;;8.57;;
11735;SDS011;5924;51.398;7.088;2023-05-14T03:20:18;9.70;;;8.60;;
11735;SDS011;5924;51.398;7.088;2023-05-14T03:22:44;11.00;;;9.13;;
11735;SDS011;5924;51.398;7.088;2023-05-14T03:25:10;10.10;;;9.13;;
11735;SDS011;5924;51.398;7.088;2023-05-14T03:27:36;8.77;;;8.07;;
11735;SDS011;5924;51.398;7.088;2023-05-14T03:30:01;9.10;;;8.30;;
11735;SDS011;5924;51.398;7.088;2023-05-14T03:32:27;10.10;;;9.20;;
11735;SDS011;5924;51.398;7.088;2023-05-14T03:34:54;9.67;;;8.80;;
11735;SDS011;5924;51.398;7.088;2023-05-14T03:37:20;9.10;;;8.33;;
11735;SDS011;5924;51.398;7.088;2023-05-14T03:39:46;10.67;;;8.90;;
11735;SDS011;5924;51.398;7.088;2023-05-14T03:42:11;8.97;;;8.23;;
11735;SDS011;5924;51.398;7.088;2023-05-14T03:44:37;9.73;;;8.77;;
11735;SDS011;5924;51.398;7.088;2023-05-14T03:47:02;8.50;;;7.80;;
11735;SDS011;5924;51.398;7.088;2023-05-14T03:49:28;9.50;;;8.77;;
11735;SDS011;5924;51.398;7.088;2023-05-14T03:51:54;8.50;;;7.13;;
11735;SDS011;5924;51.398;7.088;2023-05-14T03:54:20;8.17;;;7.57;;
11735;SDS011;5924;51.398;7.088;2023-05-14T03:56:45;6.47;;;6.07;;
11735;SDS011;5924;51.398;7.088;2023-05-14T03:59:11;7.47;;;6.80;;
11735;SDS011;5924;51.398;7.088;2023-05-14T04:01:37;7.47;;;6.77;;
11735;SDS011;5924;51.398;7.088;2023-05-14T04:04:02;7.07;;;6.57;;
11735;SDS011;5924;51.398;7.088;2023-05-14T04:06:28;7.27;;;6.60;;
11735;SDS011;5924;51.398;7.088;2023-05-14T04:08:54;8.07;;;7.37;;
11735;SDS011;5924;51.398;7.088;2023-05-14T04:11:19;7.67;;;7.13;;
11735;SDS011;5924;51.398;7.088;2023-05-14T04:13:45;10.53;;;8.10;;
11735;SDS011;5924;51.398;7.088;2023-05-14T04:16:11;8.77;;;8.00;;
11735;SDS011;5924;51.398;7.088;2023-05-14T04:18:36;8.03;;;7.23;;
11735;SDS011;5924;51.398;7.088;2023-05-14T04:21:02;7.67;;;6.40;;
11735;SDS011;5924;51.398;7.088;2023-05-14T04:23:28;13.83;;;7.80;;
11735;SDS011;5924;51.398;7.088;2023-05-14T04:25:55;8.10;;;7.30;;
11735;SDS011;5924;51.398;7.088;2023-05-14T04:28:21;9.15;;;7.43;;
11735;SDS011;5924;51.398;7.088;2023-05-14T04:30:47;8.10;;;7.40;;
11735;SDS011;5924;51.398;7.088;2023-05-14T04:33:13;8.57;;;7.80;;
11735;SDS011;5924;51.398;7.088;2023-05-14T04:35:39;7.67;;;6.97;;
11735;SDS011;5924;51.398;7.088;2023-05-14T04:38:04;7.57;;;6.87;;
11735;SDS011;5924;51.398;7.088;2023-05-14T04:40:30;8.80;;;8.10;;
11735;SDS011;5924;51.398;7.088;2023-05-14T04:42:56;8.03;;;7.30;;
11735;SDS011;5924;51.398;7.088;2023-05-14T04:45:22;9.63;;;8.63;;
11735;SDS011;5924;51.398;7.088;2023-05-14T04:47:47;8.60;;;7.90;;
11735;SDS011;5924;51.398;7.088;2023-05-14T04:50:13;7.70;;;7.10;;
11735;SDS011;5924;51.398;7.088;2023-05-14T04:52:39;7.37;;;6.77;;
11735;SDS011;5924;51.398;7.088;2023-05-14T04:55:05;7.43;;;6.93;;
11735;SDS011;5924;51.398;7.088;2023-05-14T04:57:31;8.90;;;8.20;;
11735;SDS011;5924;51.398;7.088;2023-05-14T04:59:56;9.57;;;8.73;;
11735;SDS011;5924;51.398;7.088;2023-05-14T05:02:22;10.57;;;9.70;;
11735;SDS011;5924;51.398;7.088;2023-05-14T05:04:48;7.90;;;7.23;;
11735;SDS011;5924;51.398;7.088;2023-05-14T05:07:13;8.57;;;7.77;;
11735;SDS011;5924;51.398;7.088;2023-05-14T05:09:39;9.23;;;8.20;;
11735;SDS011;5924;51.398;7.088;2023-05-14T05:12:05;8.60;;;7.90;;
11735;SDS011;5924;51.398;7.088;2023-05-14T05:14:31;9.23;;;8.40;;
11735;SDS011;5924;51.398;7.088;2023-05-14T05:16:56;8.57;;;7.87;;
11735;SDS011;5924;51.398;7.088;2023-05-14T05:19:22;8.33;;;7.33;;
11735;SDS011;5924;51.398;7.088;2023-05-14T05:21:48;8.77;;;7.60;;
11735;SDS011;5924;51.398;7.088;2023-05-14T05:24:13;7.60;;;7.00;;
11735;SDS011;5924;51.398;7.088;2023-05-14T05:26:39;7.70;;;7.10;;
11735;SDS011;5924;51.398;7.088;2023-05-14T05:29:05;9.17;;;7.50;;
11735;SDS011;5924;51.398;7.088;2023-05-14T05:31:31;7.17;;;6.57;;
11735;SDS011;5924;51.398;7.088;2023-05-14T05:34:00;7.27;;;6.70;;
11735;SDS011;5924;51.398;7.088;2023-05-14T05:36:25;6.20;;;6.00;;
11735;SDS011;5924;51.398;7.088;2023-05-14T05:38:51;7.10;;;6.60;;
11735;SDS011;5924;51.398;7.088;2023-05-14T05:41:17;7.87;;;7.27;;
11735;SDS011;5924;51.398;7.088;2023-05-14T05:43:42;8.57;;;7.67;;
11735;SDS011;5924;51.398;7.088;2023-05-14T05:46:08;7.37;;;6.87;;
11735;SDS011;5924;51.398;7.088;2023-05-14T05:48:34;6.83;;;6.23;;
11735;SDS011;5924;51.398;7.088;2023-05-14T05:51:00;9.17;;;7.20;;
11735;SDS011;5924;51.398;7.088;2023-05-14T05:53:25;7.20;;;6.50;;
11735;SDS011;5924;51.398;7.088;2023-05-14T05:55:51;8.33;;;7.60;;
11735;SDS011;5924;51.398;7.088;2023-05-14T05:58:17;8.87;;;8.13;;
11735;SDS011;5924;51.398;7.088;2023-05-14T06:00:43;7.20;;;6.77;;
11735;SDS011;5924;51.398;7.088;2023-05-14T06:03:09;7.80;;;6.93;;
11735;SDS011;5924;51.398;7.088;2023-05-14T06:05:35;7.30;;;6.70;;
11735;SDS011;5924;51.398;7.088;2023-05-14T06:08:01;6.63;;;6.23;;
11735;SDS011;5924;51.398;7.088;2023-05-14T06:10:27;7.40;;;7.00;;
11735;SDS011;5924;51.398;7.088;2023-05-14T06:12:53;11.30;;;10.20;;
11735;SDS011;5924;51.398;7.088;2023-05-14T06:15:18;7.37;;;6.77;;
11735;SDS011;5924;51.398;7.088;2023-05-14T06:17:44;6.80;;;6.37;;
11735;SDS011;5924;51.398;7.088;2023-05-14T06:20:10;6.60;;;6.20;;
11735;SDS011;5924;51.398;7.088;2023-05-14T06:22:36;7.17;;;6.73;;
11735;SDS011;5924;51.398;7.088;2023-05-14T06:25:02;9.00;;;8.20;;
11735;SDS011;5924;51.398;7.088;2023-05-14T06:27:28;11.07;;;9.97;;
11735;SDS011;5924;51.398;7.088;2023-05-14T06:29:54;7.70;;;7.20;;
11735;SDS011;5924;51.398;7.088;2023-05-14T06:32:19;9.40;;;8.60;;
11735;SDS011;5924;51.398;7.088;2023-05-14T06:34:45;10.37;;;9.47;;
11735;SDS011;5924;51.398;7.088;2023-05-14T06:37:11;8.43;;;7.77;;
11735;SDS011;5924;51.398;7.088;2023-05-14T06:39:37;12.00;;;10.57;;
11735;SDS011;5924;51.398;7.088;2023-05-14T06:42:03;9.35;;;8.52;;
11735;SDS011;5924;51.398;7.088;2023-05-14T06:44:29;10.23;;;9.17;;
11735;SDS011;5924;51.398;7.088;2023-05-14T06:46:55;10.97;;;9.60;;
11735;SDS011;5924;51.398;7.088;2023-05-14T06:49:21;9.90;;;9.07;;
11735;SDS011;5924;51.398;7.088;2023-05-14T06:51:47;9.40;;;8.60;;
11735;SDS011;5924;51.398;7.088;2023-05-14T06:54:12;11.30;;;9.90;;
11735;SDS011;5924;51.398;7.088;2023-05-14T06:56:38;10.10;;;9.30;;
11735;SDS011;5924;51.398;7.088;2023-05-14T06:59:04;11.03;;;8.53;;
11735;SDS011;5924;51.398;7.088;2023-05-14T07:01:30;8.60;;;8.00;;
11735;SDS011;5924;51.398;7.088;2023-05-14T07:03:55;8.37;;;7.70;;
11735;SDS011;5924;51.398;7.088;2023-05-14T07:06:21;7.60;;;7.03;;
11735;SDS011;5924;51.398;7.088;2023-05-14T07:08:47;7.50;;;6.90;;
11735;SDS011;5924;51.398;7.088;2023-05-14T07:11:13;9.50;;;8.70;;
11735;SDS011;5924;51.398;7.088;2023-05-14T07:13:39;11.13;;;8.23;;
11735;SDS011;5924;51.398;7.088;2023-05-14T07:16:05;9.80;;;9.10;;
11735;SDS011;5924;51.398;7.088;2023-05-14T07:18:33;8.23;;;7.63;;
11735;SDS011;5924;51.398;7.088;2023-05-14T07:20:59;10.00;;;9.03;;
11735;SDS011;5924;51.398;7.088;2023-05-14T07:23:24;7.70;;;7.10;;
11735;SDS011;5924;51.398;7.088;2023-05-14T07:25:50;8.37;;;7.70;;
11735;SDS011;5924;51.398;7.088;2023-05-14T07:28:16;7.60;;;7.20;;
11735;SDS011;5924;51.398;7.088;2023-05-14T07:30:41;7.60;;;7.10;;
11735;SDS011;5924;51.398;7.088;2023-05-14T07:33:07;5.70;;;5.40;;
11735;SDS011;5924;51.398;7.088;2023-05-14T07:35:33;6.13;;;5.83;;
11735;SDS011;5924;51.398;7.088;2023-05-14T07:37:58;6.67;;;6.20;;
11735;SDS011;5924;51.398;7.088;2023-05-14T07:40:24;6.83;;;6.43;;
11735;SDS011;5924;51.398;7.088;2023-05-14T07:42:50;6.57;;;5.70;;
11735;SDS011;5924;51.398;7.088;2023-05-14T07:45:15;5.90;;;5.70;;
11735;SDS011;5924;51.398;7.088;2023-05-14T07:47:41;5.97;;;5.57;;
11735;SDS011;5924;51.398;7.088;2023-05-14T07:50:07;4.97;;;4.50;;
11735;SDS011;5924;51.398;7.088;2023-05-14T07:52:33;4.83;;;4.63;;
11735;SDS011;5924;51.398;7.088;2023-05-14T07:54:59;4.23;;;4.13;;
11735;SDS011;5924;51.398;7.088;2023-05-14T07:57:26;4.03;;;3.92;;
11735;SDS011;5924;51.398;7.088;2023-05-14T07:59:52;4.33;;;4.13;;
11735;SDS011;5924;51.398;7.088;2023-05-14T08:02:17;3.53;;;3.43;;
11735;SDS011;5924;51.398;7.088;2023-05-14T08:04:43;3.70;;;3.40;;
11735;SDS011;5924;51.398;7.088;2023-05-14T08:07:09;3.90;;;3.70;;
11735;SDS011;5924;51.398;7.088;2023-05-14T08:09:35;3.43;;;3.33;;
11735;SDS011;5924;51.398;7.088;2023-05-14T08:12:00;3.30;;;3.25;;
11735;SDS011;5924;51.398;7.088;2023-05-14T08:14:26;3.43;;;3.33;;
11735;SDS011;5924;51.398;7.088;2023-05-14T08:16:52;3.97;;;3.80;;
11735;SDS011;5924;51.398;7.088;2023-05-14T08:19:18;3.63;;;3.53;;
11735;SDS011;5924;51.398;7.088;2023-05-14T08:21:43;5.00;;;3.50;;
11735;SDS011;5924;51.398;7.088;2023-05-14T08:24:09;3.60;;;3.30;;
11735;SDS011;5924;51.398;7.088;2023-05-14T08:26:35;3.13;;;3.03;;
11735;SDS011;5924;51.398;7.088;2023-05-14T08:29:02;3.33;;;3.23;;
11735;SDS011;5924;51.398;7.088;2023-05-14T08:31:28;3.60;;;3.42;;
11735;SDS011;5924;51.398;7.088;2023-05-14T08:33:54;3.60;;;3.50;;
11735;SDS011;5924;51.398;7.088;2023-05-14T08:36:19;3.37;;;3.27;;
11735;SDS011;5924;51.398;7.088;2023-05-14T08:38:45;2.87;;;2.83;;
11735;SDS011;5924;51.398;7.088;2023-05-14T08:41:11;3.17;;;2.87;;
11735;SDS011;5924;51.398;7.088;2023-05-14T08:46:10;3.03;;;2.83;;
11735;SDS011;5924;51.398;7.088;2023-05-14T08:48:39;3.00;;;2.90;;
11735;SDS011;5924;51.398;7.088;2023-05-14T08:51:06;2.70;;;2.70;;
11735;SDS011;5924;51.398;7.088;2023-05-14T08:53:33;3.10;;;3.00;;
11735;SDS011;5924;51.398;7.088;2023-05-14T08:55:59;3.53;;;3.23;;
11735;SDS011;5924;51.398;7.088;2023-05-14T08:58:25;3.10;;;3.00;;
11735;SDS011;5924;51.398;7.088;2023-05-14T09:00:52;2.80;;;2.80;;
11735;SDS011;5924;51.398;7.088;2023-05-14T09:03:19;2.93;;;2.70;;
11735;SDS011;5924;51.398;7.088;2023-05-14T09:05:46;4.13;;;2.80;;
11735;SDS011;5924;51.398;7.088;2023-05-14T09:08:15;3.07;;;2.93;;
11735;SDS011;5924;51.398;7.088;2023-05-14T09:10:41;2.50;;;2.50;;
11735;SDS011;5924;51.398;7.088;2023-05-14T09:13:07;5.43;;;3.00;;
11735;SDS011;5924;51.398;7.088;2023-05-14T09:15:34;3.03;;;2.97;;
11735;SDS011;5924;51.398;7.088;2023-05-14T09:18:03;3.17;;;3.07;;
11735;SDS011;5924;51.398;7.088;2023-05-14T09:20:30;2.97;;;2.83;;
11735;SDS011;5924;51.398;7.088;2023-05-14T09:22:56;2.67;;;2.50;;
11735;SDS011;5924;51.398;7.088;2023-05-14T09:25:28;2.83;;;2.83;;
11735;SDS011;5924;51.398;7.088;2023-05-14T09:27:56;2.85;;;2.85;;
11735;SDS011;5924;51.398;7.088;2023-05-14T09:30:22;3.07;;;2.87;;
11735;SDS011;5924;51.398;7.088;2023-05-14T09:32:48;2.90;;;2.80;;
11735;SDS011;5924;51.398;7.088;2023-05-14T09:35:18;2.83;;;2.63;;
11735;SDS011;5924;51.398;7.088;2023-05-14T09:37:49;3.67;;;3.47;;
11735;SDS011;5924;51.398;7.088;2023-05-14T09:40:17;2.10;;;2.10;;
11735;SDS011;5924;51.398;7.088;2023-05-14T09:42:44;2.77;;;2.77;;
11735;SDS011;5924;51.398;7.088;2023-05-14T09:45:10;2.97;;;2.87;;
11735;SDS011;5924;51.398;7.088;2023-05-14T09:47:36;3.50;;;3.50;;
11735;SDS011;5924;51.398;7.088;2023-05-14T09:50:03;3.10;;;3.00;;
11735;SDS011;5924;51.398;7.088;2023-05-14T09:52:29;7.27;;;3.57;;
11735;SDS011;5924;51.398;7.088;2023-05-14T09:54:55;4.30;;;3.43;;
11735;SDS011;5924;51.398;7.088;2023-05-14T09:57:22;3.53;;;3.37;;
11735;SDS011;5924;51.398;7.088;2023-05-14T09:59:48;3.60;;;3.37;;
11735;SDS011;5924;51.398;7.088;2023-05-14T10:02:24;2.60;;;2.50;;
11735;SDS011;5924;51.398;7.088;2023-05-14T10:04:54;2.93;;;2.83;;
11735;SDS011;5924;51.398;7.088;2023-05-14T10:07:35;2.97;;;2.87;;
11735;SDS011;5924;51.398;7.088;2023-05-14T10:10:19;3.30;;;3.20;;
11735;SDS011;5924;51.398;7.088;2023-05-14T10:12:57;3.37;;;3.17;;
11735;SDS011;5924;51.398;7.088;2023-05-14T10:15:51;3.60;;;3.50;;
11735;SDS011;5924;51.398;7.088;2023-05-14T10:18:37;3.20;;;3.10;;
11735;SDS011;5924;51.398;7.088;2023-05-14T10:21:05;3.60;;;3.50;;
11735;SDS011;5924;51.398;7.088;2023-05-14T10:23:35;3.07;;;3.07;;
11735;SDS011;5924;51.398;7.088;2023-05-14T10:26:02;2.70;;;2.70;;
11735;SDS011;5924;51.398;7.088;2023-05-14T10:28:28;3.23;;;3.00;;
11735;SDS011;5924;51.398;7.088;2023-05-14T10:30:55;3.47;;;3.27;;
11735;SDS011;5924;51.398;7.088;2023-05-14T10:33:21;2.83;;;2.83;;
11735;SDS011;5924;51.398;7.088;2023-05-14T10:35:57;3.00;;;2.80;;
11735;SDS011;5924;51.398;7.088;2023-05-14T10:38:34;3.20;;;3.00;;
11735;SDS011;5924;51.398;7.088;2023-05-14T10:43:39;3.30;;;3.10;;
11735;SDS011;5924;51.398;7.088;2023-05-14T10:46:05;3.03;;;2.93;;
11735;SDS011;5924;51.398;7.088;2023-05-14T10:48:33;3.37;;;3.20;;
11735;SDS011;5924;51.398;7.088;2023-05-14T10:51:00;4.63;;;3.33;;
11735;SDS011;5924;51.398;7.088;2023-05-14T10:53:30;3.90;;;3.80;;
11735;SDS011;5924;51.398;7.088;2023-05-14T10:56:15;4.00;;;3.73;;
11735;SDS011;5924;51.398;7.088;2023-05-14T10:58:41;3.90;;;3.80;;
11735;SDS011;5924;51.398;7.088;2023-05-14T11:01:09;3.40;;;3.30;;
11735;SDS011;5924;51.398;7.088;2023-05-14T11:03:39;3.00;;;2.90;;
11735;SDS011;5924;51.398;7.088;2023-05-14T11:06:07;3.83;;;3.73;;
11735;SDS011;5924;51.398;7.088;2023-05-14T11:08:35;3.50;;;3.30;;
11735;SDS011;5924;51.398;7.088;2023-05-14T11:11:01;4.00;;;3.80;;
11735;SDS011;5924;51.398;7.088;2023-05-14T11:13:26;3.63;;;3.33;;
11735;SDS011;5924;51.398;7.088;2023-05-14T11:15:52;4.40;;;4.00;;
11735;SDS011;5924;51.398;7.088;2023-05-14T11:18:28;3.33;;;3.23;;
11735;SDS011;5924;51.398;7.088;2023-05-14T11:20:59;2.87;;;2.77;;
11735;SDS011;5924;51.398;7.088;2023-05-14T11:23:25;2.93;;;2.93;;
11735;SDS011;5924;51.398;7.088;2023-05-14T11:25:51;3.47;;;3.23;;
11735;SDS011;5924;51.398;7.088;2023-05-14T11:28:19;2.97;;;2.87;;
11735;SDS011;5924;51.398;7.088;2023-05-14T11:30:46;3.35;;;3.25;;
11735;SDS011;5924;51.398;7.088;2023-05-14T11:33:12;2.80;;;2.67;;
11735;SDS011;5924;51.398;7.088;2023-05-14T11:35:38;2.93;;;2.83;;
11735;SDS011;5924;51.398;7.088;2023-05-14T11:38:04;4.20;;;3.30;;
11735;SDS011;5924;51.398;7.088;2023-05-14T11:40:29;3.80;;;3.50;;
11735;SDS011;5924;51.398;7.088;2023-05-14T11:42:55;3.10;;;3.00;;
11735;SDS011;5924;51.398;7.088;2023-05-14T11:45:24;4.40;;;3.67;;
11735;SDS011;5924;51.398;7.088;2023-05-14T11:47:52;3.40;;;3.30;;
11735;SDS011;5924;51.398;7.088;2023-05-14T11:50:19;4.10;;;4.00;;
11735;SDS011;5924;51.398;7.088;2023-05-14T11:52:46;3.30;;;3.30;;
11735;SDS011;5924;51.398;7.088;2023-05-14T11:55:14;3.00;;;2.90;;
11735;SDS011;5924;51.398;7.088;2023-05-14T11:57:40;2.93;;;2.80;;
11735;SDS011;5924;51.398;7.088;2023-05-14T12:00:07;2.77;;;2.57;;
11735;SDS011;5924;51.398;7.088;2023-05-14T12:02:45;3.07;;;2.87;;
11735;SDS011;5924;51.398;7.088;2023-05-14T12:05:12;3.57;;;3.27;;
11735;SDS011;5924;51.398;7.088;2023-05-14T12:07:38;3.73;;;3.53;;
11735;SDS011;5924;51.398;7.088;2023-05-14T12:10:04;3.27;;;3.17;;
11735;SDS011;5924;51.398;7.088;2023-05-14T12:12:33;3.17;;;3.07;;
11735;SDS011;5924;51.398;7.088;2023-05-14T12:15:01;3.10;;;3.10;;
11735;SDS011;5924;51.398;7.088;2023-05-14T12:17:34;3.47;;;3.30;;
11735;SDS011;5924;51.398;7.088;2023-05-14T12:20:01;2.73;;;2.63;;
11735;SDS011;5924;51.398;7.088;2023-05-14T12:22:28;2.67;;;2.47;;
11735;SDS011;5924;51.398;7.088;2023-05-14T12:24:57;2.93;;;2.73;;
11735;SDS011;5924;51.398;7.088;2023-05-14T12:27:25;2.38;;;2.38;;
11735;SDS011;5924;51.398;7.088;2023-05-14T12:30:01;3.00;;;2.80;;
11735;SDS011;5924;51.398;7.088;2023-05-14T12:32:32;3.27;;;2.50;;
11735;SDS011;5924;51.398;7.088;2023-05-14T12:34:59;2.87;;;2.50;;
11735;SDS011;5924;51.398;7.088;2023-05-14T12:37:25;4.60;;;2.73;;
11735;SDS011;5924;51.398;7.088;2023-05-14T12:39:51;3.40;;;3.10;;
11735;SDS011;5924;51.398;7.088;2023-05-14T12:42:17;6.40;;;2.57;;
11735;SDS011;5924;51.398;7.088;2023-05-14T12:44:42;2.60;;;2.50;;
11735;SDS011;5924;51.398;7.088;2023-05-14T12:47:08;3.27;;;2.77;;
11735;SDS011;5924;51.398;7.088;2023-05-14T12:49:34;2.40;;;2.40;;
11735;SDS011;5924;51.398;7.088;2023-05-14T12:52:00;2.60;;;2.50;;
11735;SDS011;5924;51.398;7.088;2023-05-14T12:54:26;5.33;;;2.60;;
11735;SDS011;5924;51.398;7.088;2023-05-14T12:56:51;2.90;;;2.70;;
11735;SDS011;5924;51.398;7.088;2023-05-14T12:59:17;2.60;;;2.50;;
11735;SDS011;5924;51.398;7.088;2023-05-14T13:01:43;2.63;;;2.63;;
11735;SDS011;5924;51.398;7.088;2023-05-14T13:04:09;2.30;;;2.10;;
11735;SDS011;5924;51.398;7.088;2023-05-14T13:06:38;2.53;;;2.42;;
11735;SDS011;5924;51.398;7.088;2023-05-14T13:09:04;5.40;;;2.13;;
11735;SDS011;5924;51.398;7.088;2023-05-14T13:11:30;2.37;;;2.27;;
11735;SDS011;5924;51.398;7.088;2023-05-14T13:14:00;2.50;;;2.40;;
11735;SDS011;5924;51.398;7.088;2023-05-14T13:16:26;2.50;;;2.40;;
11735;SDS011;5924;51.398;7.088;2023-05-14T13:18:52;2.50;;;2.40;;
11735;SDS011;5924;51.398;7.088;2023-05-14T13:21:18;2.60;;;2.50;;
11735;SDS011;5924;51.398;7.088;2023-05-14T13:23:44;2.57;;;2.47;;
11735;SDS011;5924;51.398;7.088;2023-05-14T13:26:10;2.73;;;2.53;;
11735;SDS011;5924;51.398;7.088;2023-05-14T13:28:35;8.33;;;1.90;;
11735;SDS011;5924;51.398;7.088;2023-05-14T13:31:02;2.40;;;2.40;;
11735;SDS011;5924;51.398;7.088;2023-05-14T13:33:31;2.90;;;2.80;;
11735;SDS011;5924;51.398;7.088;2023-05-14T13:36:01;2.20;;;2.20;;
11735;SDS011;5924;51.398;7.088;2023-05-14T13:38:27;2.07;;;1.87;;
11735;SDS011;5924;51.398;7.088;2023-05-14T13:40:53;2.27;;;2.17;;
11735;SDS011;5924;51.398;7.088;2023-05-14T13:43:21;1.77;;;1.77;;
11735;SDS011;5924;51.398;7.088;2023-05-14T13:45:49;2.10;;;2.10;;
11735;SDS011;5924;51.398;7.088;2023-05-14T13:48:15;2.10;;;2.00;;
11735;SDS011;5924;51.398;7.088;2023-05-14T13:50:40;2.50;;;2.30;;
11735;SDS011;5924;51.398;7.088;2023-05-14T13:53:06;1.60;;;1.57;;
11735;SDS011;5924;51.398;7.088;2023-05-14T13:55:32;1.70;;;1.70;;
11735;SDS011;5924;51.398;7.088;2023-05-14T13:57:57;1.80;;;1.80;;
11735;SDS011;5924;51.398;7.088;2023-05-14T14:00:23;1.80;;;1.80;;
11735;SDS011;5924;51.398;7.088;2023-05-14T14:02:51;1.83;;;1.83;;
11735;SDS011;5924;51.398;7.088;2023-05-14T14:05:16;1.63;;;1.63;;
11735;SDS011;5924;51.398;7.088;2023-05-14T14:07:42;1.90;;;1.90;;
11735;SDS011;5924;51.398;7.088;2023-05-14T14:10:08;1.47;;;1.47;;
11735;SDS011;5924;51.398;7.088;2023-05-14T14:12:34;1.83;;;1.73;;
11735;SDS011;5924;51.398;7.088;2023-05-14T14:14:59;1.90;;;1.90;;
11735;SDS011;5924;51.398;7.088;2023-05-14T14:17:26;1.73;;;1.73;;
11735;SDS011;5924;51.398;7.088;2023-05-14T14:19:52;1.63;;;1.53;;
11735;SDS011;5924;51.398;7.088;2023-05-14T14:22:18;1.53;;;1.53;;
11735;SDS011;5924;51.398;7.088;2023-05-14T14:24:43;1.58;;;1.58;;
11735;SDS011;5924;51.398;7.088;2023-05-14T14:27:09;1.43;;;1.43;;
11735;SDS011;5924;51.398;7.088;2023-05-14T14:29:35;2.00;;;1.87;;
11735;SDS011;5924;51.398;7.088;2023-05-14T14:32:01;8.23;;;1.60;;
11735;SDS011;5924;51.398;7.088;2023-05-14T14:34:27;2.90;;;1.43;;
11735;SDS011;5924;51.398;7.088;2023-05-14T14:36:52;1.70;;;1.70;;
11735;SDS011;5924;51.398;7.088;2023-05-14T14:39:18;1.40;;;1.40;;
11735;SDS011;5924;51.398;7.088;2023-05-14T14:41:44;1.53;;;1.53;;
11735;SDS011;5924;51.398;7.088;2023-05-14T14:44:11;1.37;;;1.37;;
11735;SDS011;5924;51.398;7.088;2023-05-14T14:46:37;1.70;;;1.60;;
11735;SDS011;5924;51.398;7.088;2023-05-14T14:49:02;1.40;;;1.37;;
11735;SDS011;5924;51.398;7.088;2023-05-14T14:51:28;1.27;;;1.23;;
11735;SDS011;5924;51.398;7.088;2023-05-14T14:53:55;1.20;;;1.20;;
11735;SDS011;5924;51.398;7.088;2023-05-14T14:56:21;1.20;;;1.20;;
11735;SDS011;5924;51.398;7.088;2023-05-14T14:58:46;1.87;;;1.37;;
11735;SDS011;5924;51.398;7.088;2023-05-14T15:01:12;2.28;;;1.45;;
11735;SDS011;5924;51.398;7.088;2023-05-14T15:03:37;1.67;;;1.58;;
11735;SDS011;5924;51.398;7.088;2023-05-14T15:06:03;1.53;;;1.53;;
11735;SDS011;5924;51.398;7.088;2023-05-14T15:08:29;1.20;;;1.20;;
11735;SDS011;5924;51.398;7.088;2023-05-14T15:10:55;1.60;;;1.50;;
11735;SDS011;5924;51.398;7.088;2023-05-14T15:13:20;1.43;;;1.43;;